createdAt,value
2019-03-03T00:00:00.325Z,4.00
2019-03-03T00:01:54.531Z,4.00
2019-03-03T00:02:54.530Z,4.00
2019-03-03T00:04:49.019Z,4.00
2019-03-03T00:05:48.883Z,4.00
2019-03-03T00:07:43.250Z,4.00
2019-03-03T00:08:43.242Z,4.00
2019-03-03T00:10:37.606Z,4.00
2019-03-03T00:11:37.596Z,4.00
2019-03-03T00:13:31.977Z,4.00
2019-03-03T00:14:31.970Z,4.00
2019-03-03T00:16:26.358Z,4.00
2019-03-03T00:17:26.335Z,4.00
2019-03-03T00:19:20.703Z,4.00
2019-03-03T00:20:20.699Z,4.00
2019-03-03T00:21:20.686Z,4.00
2019-03-03T00:22:20.678Z,4.00
2019-03-03T00:23:20.672Z,4.00
2019-03-03T00:24:20.668Z,4.00
2019-03-03T00:25:20.662Z,4.00
2019-03-03T00:26:20.655Z,4.00
2019-03-03T00:27:20.650Z,4.00
2019-03-03T00:28:20.642Z,4.00
2019-03-03T00:29:20.637Z,4.00
2019-03-03T00:30:20.627Z,4.00
2019-03-03T00:31:20.624Z,4.00
2019-03-03T00:32:20.614Z,4.00
2019-03-03T00:33:20.608Z,4.00
2019-03-03T00:34:20.605Z,4.00
2019-03-03T00:35:21.519Z,4.00
2019-03-03T00:36:20.590Z,4.00
2019-03-03T00:37:20.590Z,4.00
2019-03-03T00:38:20.584Z,4.00
2019-03-03T00:39:20.575Z,4.00
2019-03-03T00:40:20.568Z,4.00
2019-03-03T00:41:20.560Z,4.00
2019-03-03T00:42:20.561Z,4.00
2019-03-03T00:43:20.546Z,4.00
2019-03-03T00:44:20.544Z,4.00
2019-03-03T00:45:20.537Z,4.00
2019-03-03T00:46:20.528Z,4.00
2019-03-03T00:47:20.526Z,4.00
2019-03-03T00:48:20.516Z,4.00
2019-03-03T00:49:20.520Z,4.00
2019-03-03T00:50:20.550Z,4.00
2019-03-03T00:51:20.498Z,4.00
2019-03-03T00:52:20.497Z,4.00
2019-03-03T00:53:20.489Z,4.00
2019-03-03T00:54:20.485Z,4.00
2019-03-03T00:55:20.472Z,4.00
2019-03-03T00:56:20.471Z,4.00
2019-03-03T00:57:20.465Z,4.00
2019-03-03T00:58:20.460Z,4.00
2019-03-03T00:59:20.503Z,4.00
2019-03-03T01:00:20.448Z,4.00
2019-03-03T01:01:20.440Z,4.00
2019-03-03T01:02:20.434Z,4.00
2019-03-03T01:03:20.439Z,4.00
2019-03-03T01:04:20.421Z,4.00
2019-03-03T01:05:20.417Z,4.00
2019-03-03T01:06:20.413Z,4.00
2019-03-03T01:07:20.402Z,4.00
2019-03-03T01:08:20.446Z,4.00
2019-03-03T01:09:20.391Z,4.00
2019-03-03T01:10:20.385Z,4.00
2019-03-03T01:11:20.378Z,4.00
2019-03-03T01:12:20.371Z,4.00
2019-03-03T01:13:20.369Z,4.00
2019-03-03T01:14:20.363Z,4.00
2019-03-03T01:15:20.354Z,4.00
2019-03-03T01:16:20.349Z,4.00
2019-03-03T01:17:20.350Z,4.00
2019-03-03T01:18:20.337Z,4.00
2019-03-03T01:19:20.331Z,4.00
2019-03-03T01:20:20.323Z,4.00
2019-03-03T01:21:20.320Z,4.00
2019-03-03T01:22:20.313Z,4.00
2019-03-03T01:23:20.305Z,4.00
2019-03-03T01:24:20.304Z,4.00
2019-03-03T01:25:20.297Z,4.00
2019-03-03T01:26:20.287Z,4.00
2019-03-03T01:27:20.286Z,4.00
2019-03-03T01:28:22.272Z,4.00
2019-03-03T01:29:20.284Z,4.00
2019-03-03T01:30:20.272Z,4.00
2019-03-03T01:31:20.279Z,4.00
2019-03-03T01:32:20.251Z,4.00
2019-03-03T01:33:20.249Z,4.00
2019-03-03T01:34:20.241Z,4.00
2019-03-03T01:35:20.238Z,4.00
2019-03-03T01:36:20.282Z,4.00
2019-03-03T01:37:20.224Z,4.00
2019-03-03T01:38:20.216Z,4.00
2019-03-03T01:39:20.210Z,4.00
2019-03-03T01:40:20.205Z,4.00
2019-03-03T01:41:20.198Z,4.00
2019-03-03T01:42:20.195Z,4.00
2019-03-03T01:43:20.185Z,4.00
2019-03-03T01:44:20.181Z,4.00
2019-03-03T01:45:20.178Z,4.00
2019-03-03T01:46:20.170Z,4.00
2019-03-03T01:47:20.162Z,4.00
2019-03-03T01:48:20.157Z,4.00
2019-03-03T01:49:20.150Z,4.00
2019-03-03T01:50:20.159Z,4.00
2019-03-03T01:51:20.135Z,4.00
2019-03-03T01:52:20.128Z,4.00
2019-03-03T01:53:20.126Z,4.00
2019-03-03T01:54:20.119Z,4.00
2019-03-03T01:55:20.113Z,4.00
2019-03-03T01:56:20.109Z,4.00
2019-03-03T01:57:20.102Z,4.00
2019-03-03T01:58:20.112Z,4.00
2019-03-03T01:59:20.094Z,4.00
2019-03-03T02:00:20.090Z,4.00
2019-03-03T02:01:20.080Z,4.00
2019-03-03T02:02:20.073Z,4.00
2019-03-03T02:03:20.066Z,4.00
2019-03-03T02:04:20.060Z,4.00
2019-03-03T02:05:20.055Z,4.00
2019-03-03T02:06:20.049Z,4.00
2019-03-03T02:07:20.694Z,4.00
2019-03-03T02:08:20.043Z,4.00
2019-03-03T02:09:20.028Z,4.00
2019-03-03T02:10:20.032Z,4.00
2019-03-03T02:11:20.037Z,4.00
2019-03-03T02:12:20.015Z,4.00
2019-03-03T02:13:20.012Z,4.00
2019-03-03T02:14:19.999Z,4.00
2019-03-03T02:15:19.993Z,4.00
2019-03-03T02:16:19.989Z,4.00
2019-03-03T02:17:19.992Z,4.00
2019-03-03T02:18:20.095Z,4.00
2019-03-03T02:19:19.974Z,4.00
2019-03-03T02:20:19.965Z,4.00
2019-03-03T02:21:20.183Z,4.00
2019-03-03T02:22:19.959Z,4.00
2019-03-03T02:23:19.964Z,4.00
2019-03-03T02:24:19.959Z,4.00
2019-03-03T02:25:19.959Z,4.00
2019-03-03T02:26:19.930Z,4.00
2019-03-03T02:27:19.924Z,4.00
2019-03-03T02:28:19.915Z,4.00
2019-03-03T02:29:19.912Z,4.00
2019-03-03T02:30:19.919Z,4.00
2019-03-03T02:31:19.905Z,4.00
2019-03-03T02:32:19.893Z,4.00
2019-03-03T02:33:19.890Z,4.00
2019-03-03T02:34:19.884Z,4.00
2019-03-03T02:35:19.879Z,4.00
2019-03-03T02:36:19.872Z,4.00
2019-03-03T02:37:19.869Z,4.00
2019-03-03T02:38:19.859Z,4.00
2019-03-03T02:39:19.858Z,4.00
2019-03-03T02:40:19.852Z,4.00
2019-03-03T02:41:19.839Z,4.00
2019-03-03T02:42:19.834Z,4.00
2019-03-03T02:43:19.837Z,4.00
2019-03-03T02:44:19.820Z,4.00
2019-03-03T02:45:19.832Z,4.00
2019-03-03T02:46:19.811Z,4.00
2019-03-03T02:47:19.803Z,4.00
2019-03-03T02:48:19.800Z,4.00
2019-03-03T02:49:19.801Z,4.00
2019-03-03T02:50:19.788Z,4.00
2019-03-03T02:51:19.793Z,4.00
2019-03-03T02:52:19.789Z,4.00
2019-03-03T02:53:19.771Z,4.00
2019-03-03T02:54:19.758Z,4.00
2019-03-03T02:55:19.759Z,4.00
2019-03-03T02:56:19.755Z,4.00
2019-03-03T02:57:19.755Z,4.00
2019-03-03T02:58:19.747Z,4.00
2019-03-03T02:59:19.737Z,4.00
2019-03-03T03:00:19.735Z,4.00
2019-03-03T03:01:19.726Z,4.00
2019-03-03T03:02:19.716Z,4.00
2019-03-03T03:03:19.714Z,4.00
2019-03-03T03:04:19.709Z,4.00
2019-03-03T03:05:19.705Z,4.00
2019-03-03T03:06:19.705Z,4.00
2019-03-03T03:07:19.717Z,4.00
2019-03-03T03:08:19.684Z,4.00
2019-03-03T03:09:19.687Z,4.00
2019-03-03T03:10:19.670Z,4.00
2019-03-03T03:11:19.665Z,4.00
2019-03-03T03:12:19.667Z,4.00
2019-03-03T03:13:19.661Z,4.00
2019-03-03T03:14:19.654Z,4.00
2019-03-03T03:15:19.657Z,4.00
2019-03-03T03:16:19.640Z,4.00
2019-03-03T03:17:19.635Z,4.00
2019-03-03T03:18:19.623Z,4.00
2019-03-03T03:19:19.620Z,4.00
2019-03-03T03:20:19.635Z,4.00
2019-03-03T03:21:19.603Z,4.00
2019-03-03T03:22:19.601Z,4.00
2019-03-03T03:23:19.600Z,4.00
2019-03-03T03:24:19.587Z,4.00
2019-03-03T03:25:19.585Z,4.00
2019-03-03T03:26:19.574Z,4.00
2019-03-03T03:27:19.569Z,4.00
2019-03-03T03:28:19.574Z,4.00
2019-03-03T03:29:19.568Z,4.00
2019-03-03T03:30:19.555Z,4.00
2019-03-03T03:31:19.547Z,4.00
2019-03-03T03:32:19.545Z,4.00
2019-03-03T03:33:19.540Z,4.00
2019-03-03T03:34:19.531Z,4.00
2019-03-03T03:35:19.524Z,4.00
2019-03-03T03:36:19.518Z,4.00
2019-03-03T03:37:19.513Z,4.00
2019-03-03T03:38:19.502Z,4.00
2019-03-03T03:39:19.844Z,4.00
2019-03-03T03:40:19.496Z,4.00
2019-03-03T03:41:19.489Z,4.00
2019-03-03T03:42:19.482Z,4.00
2019-03-03T03:43:19.477Z,4.00
2019-03-03T03:44:19.469Z,4.00
2019-03-03T03:45:19.466Z,4.00
2019-03-03T03:46:19.456Z,4.00
2019-03-03T03:47:19.454Z,4.00
2019-03-03T03:48:19.446Z,4.00
2019-03-03T03:49:19.439Z,4.00
2019-03-03T03:50:21.298Z,4.00
2019-03-03T03:51:19.428Z,4.00
2019-03-03T03:52:19.438Z,4.00
2019-03-03T03:53:19.420Z,4.00
2019-03-03T03:54:19.414Z,4.00
2019-03-03T03:55:19.407Z,4.00
2019-03-03T03:56:19.405Z,4.00
2019-03-03T03:57:19.391Z,4.00
2019-03-03T03:58:19.386Z,4.00
2019-03-03T03:59:19.380Z,4.00
2019-03-03T04:00:19.377Z,4.00
2019-03-03T04:01:19.368Z,4.00
2019-03-03T04:02:19.364Z,4.00
2019-03-03T04:03:19.377Z,4.00
2019-03-03T04:04:19.352Z,4.00
2019-03-03T04:05:19.361Z,4.00
2019-03-03T04:06:19.343Z,4.00
2019-03-03T04:07:19.336Z,4.00
2019-03-03T04:08:19.333Z,4.00
2019-03-03T04:09:19.326Z,4.00
2019-03-03T04:10:20.244Z,4.00
2019-03-03T04:11:19.320Z,4.00
2019-03-03T04:12:19.303Z,4.00
2019-03-03T04:13:19.300Z,4.00
2019-03-03T04:14:19.294Z,4.00
2019-03-03T04:15:19.287Z,4.00
2019-03-03T04:16:19.281Z,4.00
2019-03-03T04:17:19.277Z,4.00
2019-03-03T04:18:40.280Z,4.00
2019-03-03T04:19:19.263Z,4.00
2019-03-03T04:20:19.257Z,4.00
2019-03-03T04:21:19.256Z,4.00
2019-03-03T04:22:19.246Z,4.00
2019-03-03T04:23:19.244Z,4.00
2019-03-03T04:24:19.233Z,4.00
2019-03-03T04:25:19.228Z,4.00
2019-03-03T04:26:19.225Z,4.00
2019-03-03T04:27:19.226Z,4.00
2019-03-03T04:28:19.213Z,4.00
2019-03-03T04:29:19.207Z,4.00
2019-03-03T04:30:19.202Z,4.00
2019-03-03T04:31:19.193Z,4.00
2019-03-03T04:32:19.189Z,4.00
2019-03-03T04:33:19.181Z,4.00
2019-03-03T04:34:19.177Z,4.00
2019-03-03T04:35:19.171Z,4.00
2019-03-03T04:36:19.164Z,4.00
2019-03-03T04:37:19.159Z,4.00
2019-03-03T04:38:19.155Z,4.00
2019-03-03T04:39:19.157Z,4.00
2019-03-03T04:40:19.142Z,4.00
2019-03-03T04:41:19.135Z,4.00
2019-03-03T04:42:19.128Z,4.00
2019-03-03T04:43:19.130Z,4.00
2019-03-03T04:44:19.117Z,4.00
2019-03-03T04:45:19.117Z,4.00
2019-03-03T04:46:19.103Z,4.00
2019-03-03T04:47:19.123Z,4.00
2019-03-03T04:48:19.092Z,4.00
2019-03-03T04:49:19.089Z,4.00
2019-03-03T04:50:19.088Z,4.00
2019-03-03T04:51:19.077Z,4.00
2019-03-03T04:52:19.069Z,4.00
2019-03-03T04:53:19.066Z,4.00
2019-03-03T04:54:19.056Z,4.00
2019-03-03T04:55:19.055Z,4.00
2019-03-03T04:56:19.045Z,4.00
2019-03-03T04:57:19.047Z,4.00
2019-03-03T04:58:19.045Z,4.00
2019-03-03T04:59:19.038Z,4.00
2019-03-03T05:00:19.021Z,4.00
2019-03-03T05:01:19.038Z,4.00
2019-03-03T05:02:19.011Z,4.00
2019-03-03T05:03:19.009Z,4.00
2019-03-03T05:04:18.997Z,4.00
2019-03-03T05:05:18.991Z,4.00
2019-03-03T05:06:18.988Z,4.00
2019-03-03T05:07:18.985Z,4.00
2019-03-03T05:08:18.973Z,4.00
2019-03-03T05:09:18.973Z,4.00
2019-03-03T05:10:18.964Z,4.00
2019-03-03T05:11:19.018Z,4.00
2019-03-03T05:12:18.950Z,4.00
2019-03-03T05:13:18.942Z,4.00
2019-03-03T05:14:18.940Z,4.00
2019-03-03T05:15:18.933Z,4.00
2019-03-03T05:16:18.929Z,4.00
2019-03-03T05:17:18.924Z,4.00
2019-03-03T05:18:18.918Z,4.00
2019-03-03T05:19:18.914Z,4.00
2019-03-03T05:20:18.902Z,4.00
2019-03-03T05:21:18.900Z,4.00
2019-03-03T05:22:18.891Z,4.00
2019-03-03T05:23:18.885Z,4.00
2019-03-03T05:24:18.876Z,4.00
2019-03-03T05:25:18.874Z,4.00
2019-03-03T05:26:18.864Z,4.00
2019-03-03T05:27:18.859Z,8.00
2019-03-03T05:28:18.850Z,8.00
2019-03-03T05:29:18.847Z,8.00
2019-03-03T05:30:18.838Z,8.00
2019-03-03T05:31:18.838Z,8.00
2019-03-03T05:32:18.826Z,8.00
2019-03-03T05:33:18.819Z,8.00
2019-03-03T05:34:18.819Z,4.00
2019-03-03T05:35:18.808Z,4.00
2019-03-03T05:36:18.801Z,8.00
2019-03-03T05:37:18.794Z,8.00
2019-03-03T05:38:18.789Z,8.00
2019-03-03T05:39:18.787Z,8.00
2019-03-03T05:40:18.776Z,8.00
2019-03-03T05:41:18.773Z,12.00
2019-03-03T05:42:19.396Z,8.00
2019-03-03T05:43:18.760Z,12.00
2019-03-03T05:44:18.752Z,8.00
2019-03-03T05:45:18.745Z,8.00
2019-03-03T05:46:18.739Z,12.00
2019-03-03T05:47:18.735Z,12.00
2019-03-03T05:48:18.725Z,16.00
2019-03-03T05:49:18.719Z,12.00
2019-03-03T05:50:18.712Z,16.00
2019-03-03T05:51:18.708Z,20.00
2019-03-03T05:52:18.701Z,16.00
2019-03-03T05:53:18.701Z,20.00
2019-03-03T05:54:18.691Z,20.00
2019-03-03T05:55:18.683Z,24.00
2019-03-03T05:56:19.069Z,24.00
2019-03-03T05:57:18.669Z,24.00
2019-03-03T05:58:18.666Z,28.00
2019-03-03T05:59:18.657Z,32.00
2019-03-03T06:00:18.653Z,32.00
2019-03-03T06:01:18.645Z,32.00
2019-03-03T06:02:18.640Z,40.00
2019-03-03T06:03:18.633Z,44.00
2019-03-03T06:04:18.625Z,52.00
2019-03-03T06:05:18.621Z,56.00
2019-03-03T06:06:18.618Z,64.00
2019-03-03T06:07:18.610Z,76.00
2019-03-03T06:08:18.602Z,80.00
2019-03-03T06:09:18.595Z,88.00
2019-03-03T06:10:18.593Z,96.00
2019-03-03T06:11:18.584Z,100.00
2019-03-03T06:12:18.581Z,104.00
2019-03-03T06:13:18.569Z,112.00
2019-03-03T06:14:18.572Z,116.00
2019-03-03T06:15:18.560Z,128.00
2019-03-03T06:16:18.552Z,136.00
2019-03-03T06:17:18.547Z,144.00
2019-03-03T06:18:18.538Z,152.00
2019-03-03T06:19:18.533Z,164.00
2019-03-03T06:20:18.532Z,176.00
2019-03-03T06:21:18.524Z,188.00
2019-03-03T06:22:18.515Z,200.00
2019-03-03T06:23:18.510Z,212.00
2019-03-03T06:24:18.507Z,228.00
2019-03-03T06:25:18.500Z,240.00
2019-03-03T06:26:18.503Z,256.00
2019-03-03T06:27:18.485Z,268.00
2019-03-03T06:28:18.478Z,276.00
2019-03-03T06:29:18.478Z,288.00
2019-03-03T06:30:18.474Z,300.00
2019-03-03T06:31:18.458Z,312.00
2019-03-03T06:32:18.458Z,312.00
2019-03-03T06:33:18.449Z,296.00
2019-03-03T06:34:18.443Z,272.00
2019-03-03T06:35:18.438Z,264.00
2019-03-03T06:36:18.431Z,288.00
2019-03-03T06:37:18.425Z,296.00
2019-03-03T06:38:18.418Z,312.00
2019-03-03T06:39:18.414Z,316.00
2019-03-03T06:40:18.406Z,328.00
2019-03-03T06:41:18.402Z,340.00
2019-03-03T06:42:18.392Z,376.00
2019-03-03T06:43:18.385Z,388.00
2019-03-03T06:44:18.381Z,420.00
2019-03-03T06:45:18.377Z,444.00
2019-03-03T06:46:18.370Z,432.00
2019-03-03T06:47:18.363Z,456.00
2019-03-03T06:48:18.359Z,480.00
2019-03-03T06:49:18.355Z,504.00
2019-03-03T06:50:18.347Z,512.00
2019-03-03T06:51:18.341Z,532.00
2019-03-03T06:52:18.332Z,528.00
2019-03-03T06:53:18.327Z,536.00
2019-03-03T06:54:18.323Z,540.00
2019-03-03T06:55:18.317Z,532.00
2019-03-03T06:56:18.311Z,516.00
2019-03-03T06:57:18.315Z,516.00
2019-03-03T06:58:18.299Z,524.00
2019-03-03T06:59:18.290Z,540.00
2019-03-03T07:00:18.287Z,540.00
2019-03-03T07:01:18.278Z,576.00
2019-03-03T07:02:18.275Z,588.00
2019-03-03T07:03:18.270Z,640.00
2019-03-03T07:04:18.263Z,640.00
2019-03-03T07:05:18.258Z,660.00
2019-03-03T07:06:18.249Z,704.00
2019-03-03T07:07:18.242Z,752.00
2019-03-03T07:08:18.238Z,796.00
2019-03-03T07:09:18.236Z,828.00
2019-03-03T07:10:18.226Z,856.00
2019-03-03T07:11:18.222Z,832.00
2019-03-03T07:12:18.215Z,820.00
2019-03-03T07:13:18.212Z,808.00
2019-03-03T07:14:18.561Z,764.00
2019-03-03T07:15:18.196Z,744.00
2019-03-03T07:16:18.194Z,800.00
2019-03-03T07:17:18.185Z,832.00
2019-03-03T07:18:18.177Z,828.00
2019-03-03T07:19:18.172Z,820.00
2019-03-03T07:20:18.167Z,816.00
2019-03-03T07:21:18.161Z,824.00
2019-03-03T07:22:18.157Z,824.00
2019-03-03T07:23:18.150Z,836.00
2019-03-03T07:24:18.153Z,840.00
2019-03-03T07:25:18.139Z,864.00
2019-03-03T07:26:18.134Z,884.00
2019-03-03T07:27:18.128Z,900.00
2019-03-03T07:28:18.129Z,900.00
2019-03-03T07:29:18.115Z,916.00
2019-03-03T07:30:18.124Z,940.00
2019-03-03T07:31:18.103Z,964.00
2019-03-03T07:32:18.103Z,996.00
2019-03-03T07:33:18.091Z,1020.00
2019-03-03T07:34:18.088Z,1028.00
2019-03-03T07:35:18.080Z,1048.00
2019-03-03T07:36:18.078Z,1072.00
2019-03-03T07:37:18.071Z,1088.00
2019-03-03T07:38:18.074Z,1104.00
2019-03-03T07:39:18.060Z,1108.00
2019-03-03T07:40:18.057Z,1108.00
2019-03-03T07:41:18.048Z,1064.00
2019-03-03T07:42:18.039Z,1092.00
2019-03-03T07:43:18.038Z,1164.00
2019-03-03T07:44:18.032Z,1184.00
2019-03-03T07:45:18.965Z,1172.00
2019-03-03T07:46:18.019Z,1204.00
2019-03-03T07:47:18.016Z,1240.00
2019-03-03T07:48:18.052Z,1260.00
2019-03-03T07:49:18.031Z,1248.00
2019-03-03T07:50:17.995Z,1260.00
2019-03-03T07:51:17.993Z,1260.00
2019-03-03T07:52:18.278Z,1244.00
2019-03-03T07:53:17.982Z,1292.00
2019-03-03T07:54:17.978Z,1336.00
2019-03-03T07:55:17.968Z,1388.00
2019-03-03T07:56:17.966Z,1436.00
2019-03-03T07:57:17.965Z,1440.00
2019-03-03T07:58:17.957Z,1464.00
2019-03-03T07:59:17.948Z,1544.00
2019-03-03T08:00:17.945Z,1488.00
2019-03-03T08:01:17.939Z,1524.00
2019-03-03T08:02:17.934Z,1456.00
2019-03-03T08:03:17.927Z,1432.00
2019-03-03T08:04:17.922Z,1424.00
2019-03-03T08:05:17.919Z,1424.00
2019-03-03T08:06:17.912Z,1448.00
2019-03-03T08:07:17.915Z,1472.00
2019-03-03T08:08:17.901Z,1512.00
2019-03-03T08:09:17.894Z,1524.00
2019-03-03T08:10:17.887Z,1584.00
2019-03-03T08:11:17.903Z,1596.00
2019-03-03T08:12:17.878Z,1648.00
2019-03-03T08:13:17.871Z,1684.00
2019-03-03T08:14:17.867Z,1716.00
2019-03-03T08:15:17.863Z,1744.00
2019-03-03T08:16:17.857Z,1780.00
2019-03-03T08:17:17.855Z,1828.00
2019-03-03T08:18:17.846Z,1876.00
2019-03-03T08:19:17.851Z,1904.00
2019-03-03T08:20:17.834Z,1908.00
2019-03-03T08:21:17.830Z,1940.00
2019-03-03T08:22:17.826Z,2012.00
2019-03-03T08:23:17.824Z,2088.00
2019-03-03T08:24:17.813Z,2148.00
2019-03-03T08:25:17.810Z,2208.00
2019-03-03T08:26:17.804Z,2268.00
2019-03-03T08:27:17.797Z,2280.00
2019-03-03T08:28:17.799Z,2300.00
2019-03-03T08:29:17.806Z,2280.00
2019-03-03T08:30:17.790Z,2280.00
2019-03-03T08:31:17.775Z,2272.00
2019-03-03T08:32:17.772Z,2320.00
2019-03-03T08:33:17.767Z,2328.00
2019-03-03T08:34:17.759Z,2228.00
2019-03-03T08:35:17.753Z,2240.00
2019-03-03T08:36:17.753Z,2284.00
2019-03-03T08:37:17.747Z,2284.00
2019-03-03T08:38:17.754Z,2228.00
2019-03-03T08:39:17.737Z,2196.00
2019-03-03T08:40:17.748Z,2228.00
2019-03-03T08:41:17.726Z,2248.00
2019-03-03T08:42:17.717Z,2188.00
2019-03-03T08:43:17.713Z,2136.00
2019-03-03T08:44:17.711Z,2164.00
2019-03-03T08:45:17.722Z,2196.00
2019-03-03T08:46:17.725Z,2100.00
2019-03-03T08:47:17.696Z,2112.00
2019-03-03T08:48:17.692Z,2180.00
2019-03-03T08:49:17.686Z,2200.00
2019-03-03T08:50:17.682Z,2424.00
2019-03-03T08:51:17.672Z,2552.00
2019-03-03T08:52:17.670Z,2660.00
2019-03-03T08:53:17.665Z,2676.00
2019-03-03T08:54:17.661Z,2712.00
2019-03-03T08:55:17.659Z,2704.00
2019-03-03T08:56:17.653Z,2636.00
2019-03-03T08:57:17.658Z,2696.00
2019-03-03T08:58:17.637Z,2724.00
2019-03-03T08:59:17.634Z,2744.00
2019-03-03T09:00:18.256Z,2776.00
2019-03-03T09:01:17.631Z,2812.00
2019-03-03T09:02:17.622Z,2852.00
2019-03-03T09:03:17.618Z,2908.00
2019-03-03T09:04:17.615Z,2960.00
2019-03-03T09:05:17.611Z,2992.00
2019-03-03T09:06:17.600Z,3048.00
2019-03-03T09:07:17.600Z,3088.00
2019-03-03T09:08:17.592Z,3124.00
2019-03-03T09:09:17.591Z,3148.00
2019-03-03T09:10:25.207Z,3140.00
2019-03-03T09:11:17.582Z,3148.00
2019-03-03T09:12:17.577Z,3168.00
2019-03-03T09:13:17.570Z,3204.00
2019-03-03T09:14:17.566Z,3224.00
2019-03-03T09:15:17.564Z,3260.00
2019-03-03T09:16:17.558Z,3272.00
2019-03-03T09:17:18.129Z,3244.00
2019-03-03T09:18:17.550Z,3212.00
2019-03-03T09:19:17.600Z,3184.00
2019-03-03T09:20:17.540Z,3168.00
2019-03-03T09:21:17.537Z,3148.00
2019-03-03T09:22:17.530Z,3112.00
2019-03-03T09:23:17.539Z,3112.00
2019-03-03T09:24:17.522Z,3136.00
2019-03-03T09:25:17.520Z,3152.00
2019-03-03T09:26:17.514Z,3196.00
2019-03-03T09:27:17.509Z,3252.00
2019-03-03T09:28:17.507Z,3308.00
2019-03-03T09:29:17.503Z,3356.00
2019-03-03T09:30:17.500Z,3416.00
2019-03-03T09:31:17.494Z,3464.00
2019-03-03T09:32:17.489Z,3488.00
2019-03-03T09:33:17.484Z,3492.00
2019-03-03T09:34:17.489Z,3512.00
2019-03-03T09:35:17.478Z,3536.00
2019-03-03T09:36:17.476Z,3580.00
2019-03-03T09:37:17.469Z,3612.00
2019-03-03T09:38:17.461Z,3632.00
2019-03-03T09:39:17.456Z,3620.00
2019-03-03T09:40:17.454Z,3608.00
2019-03-03T09:41:17.456Z,3596.00
2019-03-03T09:42:17.446Z,3580.00
2019-03-03T09:43:17.441Z,3580.00
2019-03-03T09:44:17.443Z,3556.00
2019-03-03T09:45:17.439Z,3516.00
2019-03-03T09:46:17.430Z,3472.00
2019-03-03T09:47:17.426Z,3440.00
2019-03-03T09:48:17.434Z,3408.00
2019-03-03T09:49:17.419Z,3388.00
2019-03-03T09:50:17.415Z,3352.00
2019-03-03T09:51:17.412Z,3300.00
2019-03-03T09:52:17.455Z,3256.00
2019-03-03T09:53:17.401Z,3212.00
2019-03-03T09:54:17.396Z,3164.00
2019-03-03T09:55:17.409Z,3152.00
2019-03-03T09:56:17.415Z,3156.00
2019-03-03T09:57:17.385Z,3132.00
2019-03-03T09:58:17.453Z,3100.00
2019-03-03T09:59:17.380Z,3032.00
2019-03-03T10:00:17.378Z,2960.00
2019-03-03T10:01:17.373Z,2896.00
2019-03-03T10:02:17.369Z,2876.00
2019-03-03T10:03:17.362Z,2884.00
2019-03-03T10:04:17.361Z,2908.00
2019-03-03T10:05:17.355Z,2948.00
2019-03-03T10:06:17.355Z,3020.00
2019-03-03T10:07:17.350Z,3092.00
2019-03-03T10:08:17.342Z,3128.00
2019-03-03T10:09:17.335Z,3164.00
2019-03-03T10:10:17.334Z,3180.00
2019-03-03T10:11:17.421Z,3176.00
2019-03-03T10:12:17.324Z,3240.00
2019-03-03T10:13:17.319Z,3340.00
2019-03-03T10:14:17.315Z,3440.00
2019-03-03T10:15:17.311Z,3484.00
2019-03-03T10:16:17.320Z,3544.00
2019-03-03T10:17:17.306Z,3592.00
2019-03-03T10:18:17.300Z,3612.00
2019-03-03T10:19:17.307Z,3696.00
2019-03-03T10:20:17.295Z,3724.00
2019-03-03T10:21:17.293Z,3692.00
2019-03-03T10:22:17.285Z,3672.00
2019-03-03T10:23:17.282Z,3724.00
2019-03-03T10:24:17.277Z,3704.00
2019-03-03T10:25:17.326Z,3604.00
2019-03-03T10:26:17.279Z,3604.00
2019-03-03T10:27:17.265Z,3644.00
2019-03-03T10:28:17.263Z,3708.00
2019-03-03T10:29:17.259Z,3672.00
2019-03-03T10:30:17.256Z,3624.00
2019-03-03T10:31:17.252Z,3684.00
2019-03-03T10:32:17.247Z,3716.00
2019-03-03T10:33:17.245Z,3708.00
2019-03-03T10:34:17.239Z,3756.00
2019-03-03T10:35:17.235Z,3804.00
2019-03-03T10:36:17.234Z,3780.00
2019-03-03T10:37:17.229Z,3716.00
2019-03-03T10:38:17.228Z,3572.00
2019-03-03T10:39:17.243Z,3464.00
2019-03-03T10:40:17.218Z,3440.00
2019-03-03T10:41:17.218Z,3432.00
2019-03-03T10:42:17.208Z,3392.00
2019-03-03T10:43:17.217Z,3388.00
2019-03-03T10:44:17.207Z,3384.00
2019-03-03T10:45:17.200Z,3308.00
2019-03-03T10:46:17.197Z,3360.00
2019-03-03T10:47:17.196Z,3332.00
2019-03-03T10:48:17.273Z,3316.00
2019-03-03T10:49:17.293Z,3388.00
2019-03-03T10:50:17.187Z,3484.00
2019-03-03T10:51:17.177Z,3524.00
2019-03-03T10:52:17.174Z,3604.00
2019-03-03T10:53:17.170Z,3600.00
2019-03-03T10:54:17.169Z,3604.00
2019-03-03T10:55:17.166Z,3612.00
2019-03-03T10:56:17.161Z,3580.00
2019-03-03T10:57:17.157Z,3536.00
2019-03-03T10:58:17.154Z,3496.00
2019-03-03T10:59:17.166Z,3564.00
2019-03-03T11:00:17.147Z,3556.00
2019-03-03T11:01:17.147Z,3408.00
2019-03-03T11:02:17.136Z,3384.00
2019-03-03T11:03:17.132Z,3532.00
2019-03-03T11:04:17.153Z,3516.00
2019-03-03T11:05:17.130Z,3452.00
2019-03-03T11:06:17.124Z,3408.00
2019-03-03T11:07:17.119Z,3340.00
2019-03-03T11:08:17.119Z,3316.00
2019-03-03T11:09:17.112Z,3320.00
2019-03-03T11:10:17.107Z,3292.00
2019-03-03T11:11:17.106Z,3276.00
2019-03-03T11:12:17.110Z,3308.00
2019-03-03T11:13:17.098Z,3376.00
2019-03-03T11:14:17.097Z,3332.00
2019-03-03T11:15:18.665Z,3296.00
2019-03-03T11:16:17.159Z,3204.00
2019-03-03T11:17:17.089Z,3144.00
2019-03-03T11:18:17.092Z,3104.00
2019-03-03T11:19:17.081Z,3036.00
2019-03-03T11:20:17.682Z,2900.00
2019-03-03T11:21:17.071Z,2760.00
2019-03-03T11:22:17.068Z,2696.00
2019-03-03T11:23:17.067Z,2660.00
2019-03-03T11:24:17.062Z,2596.00
2019-03-03T11:25:17.087Z,2432.00
2019-03-03T11:26:17.054Z,2516.00
2019-03-03T11:27:17.052Z,2504.00
2019-03-03T11:28:23.682Z,2464.00
2019-03-03T11:29:17.042Z,2500.00
2019-03-03T11:30:17.041Z,2460.00
2019-03-03T11:31:17.036Z,2436.00
2019-03-03T11:32:17.035Z,2376.00
2019-03-03T11:33:17.033Z,2424.00
2019-03-03T11:34:17.028Z,2488.00
2019-03-03T11:35:17.022Z,2564.00
2019-03-03T11:36:17.017Z,2580.00
2019-03-03T11:37:17.020Z,2624.00
2019-03-03T11:38:17.011Z,2644.00
2019-03-03T11:39:17.008Z,2552.00
2019-03-03T11:40:17.008Z,2408.00
2019-03-03T11:41:17.001Z,2164.00
2019-03-03T11:42:16.996Z,1996.00
2019-03-03T11:43:17.002Z,1612.00
2019-03-03T11:44:17.009Z,1784.00
2019-03-03T11:45:17.001Z,1940.00
2019-03-03T11:46:16.987Z,2224.00
2019-03-03T11:47:16.979Z,2204.00
2019-03-03T11:48:16.984Z,2176.00
2019-03-03T11:49:16.987Z,1948.00
2019-03-03T11:50:18.892Z,1824.00
2019-03-03T11:51:16.964Z,1632.00
2019-03-03T11:52:16.960Z,1488.00
2019-03-03T11:53:16.962Z,1584.00
2019-03-03T11:54:16.955Z,1704.00
2019-03-03T11:55:16.950Z,2008.00
2019-03-03T11:56:16.946Z,2088.00
2019-03-03T11:57:16.948Z,1900.00
2019-03-03T11:58:16.940Z,2332.00
2019-03-03T11:59:16.935Z,2436.00
2019-03-03T12:00:16.934Z,2296.00
2019-03-03T12:01:16.929Z,2236.00
2019-03-03T12:02:16.935Z,2068.00
2019-03-03T12:03:16.938Z,2112.00
2019-03-03T12:04:16.921Z,2176.00
2019-03-03T12:05:17.053Z,1984.00
2019-03-03T12:06:16.909Z,1996.00
2019-03-03T12:07:16.904Z,1844.00
2019-03-03T12:08:16.908Z,1724.00
2019-03-03T12:09:17.013Z,1656.00
2019-03-03T12:10:16.958Z,1684.00
2019-03-03T12:11:16.938Z,1692.00
2019-03-03T12:12:16.888Z,1772.00
2019-03-03T12:13:16.922Z,2036.00
2019-03-03T12:14:16.876Z,2148.00
2019-03-03T12:15:18.389Z,1940.00
2019-03-03T12:16:16.885Z,2088.00
2019-03-03T12:17:16.881Z,2028.00
2019-03-03T12:18:16.862Z,2240.00
2019-03-03T12:19:18.396Z,2568.00
2019-03-03T12:20:16.865Z,2832.00
2019-03-03T12:21:16.852Z,2920.00
2019-03-03T12:22:16.847Z,2884.00
2019-03-03T12:23:17.259Z,2728.00
2019-03-03T12:24:16.837Z,2856.00
2019-03-03T12:25:16.837Z,3220.00
2019-03-03T12:26:16.833Z,3188.00
2019-03-03T12:27:16.828Z,3272.00
2019-03-03T12:28:16.826Z,3180.00
2019-03-03T12:29:16.824Z,3020.00
2019-03-03T12:30:16.820Z,2816.00
2019-03-03T12:31:16.814Z,2452.00
2019-03-03T12:32:16.855Z,2152.00
2019-03-03T12:33:16.925Z,1772.00
2019-03-03T12:34:16.805Z,1664.00
2019-03-03T12:35:16.809Z,1644.00
2019-03-03T12:36:16.799Z,1776.00
2019-03-03T12:37:16.795Z,1840.00
2019-03-03T12:38:16.793Z,1764.00
2019-03-03T12:39:16.881Z,2020.00
2019-03-03T12:40:16.781Z,1948.00
2019-03-03T12:41:16.781Z,1732.00
2019-03-03T12:42:16.803Z,1640.00
2019-03-03T12:43:16.793Z,1652.00
2019-03-03T12:44:16.770Z,1508.00
2019-03-03T12:45:16.763Z,1492.00
2019-03-03T12:46:16.767Z,1596.00